createdAt,value
2023-02-27T00:00:46.554Z,63.31
2023-02-27T00:03:13.103Z,63.62
2023-02-27T00:05:41.806Z,63.59
2023-02-27T00:08:08.847Z,64.70
2023-02-27T00:10:35.449Z,64.60
2023-02-27T00:13:02.120Z,64.81
2023-02-27T00:15:30.902Z,65.13
2023-02-27T00:17:57.807Z,65.66
2023-02-27T00:20:24.841Z,64.55
2023-02-27T00:22:52.013Z,64.57
2023-02-27T00:25:19.122Z,64.27
2023-02-27T00:27:45.708Z,65.09
2023-02-27T00:30:15.742Z,65.14
2023-02-27T00:32:43.094Z,64.52
2023-02-27T00:35:12.041Z,65.72
2023-02-27T00:37:39.895Z,64.61
2023-02-27T00:40:07.369Z,65.02
2023-02-27T00:42:34.552Z,64.64
2023-02-27T00:45:01.118Z,64.96
2023-02-27T00:47:27.737Z,65.24
2023-02-27T00:49:54.332Z,66.25
2023-02-27T00:52:20.927Z,66.83
2023-02-27T00:54:47.443Z,66.86
2023-02-27T00:57:14.061Z,66.44
2023-02-27T00:59:41.150Z,66.95
2023-02-27T01:02:07.925Z,66.93
2023-02-27T01:04:34.505Z,67.11
2023-02-27T01:07:01.191Z,67.41
2023-02-27T01:09:27.730Z,66.90
2023-02-27T01:11:54.306Z,67.99
2023-02-27T01:14:20.904Z,67.29
2023-02-27T01:16:47.487Z,67.48
2023-02-27T01:19:14.025Z,67.67
2023-02-27T01:21:42.143Z,67.48
2023-02-27T01:24:09.943Z,67.61
2023-02-27T01:26:36.617Z,67.67
2023-02-27T01:29:05.989Z,67.30
2023-02-27T01:31:33.208Z,66.78
2023-02-27T01:33:59.753Z,67.96
2023-02-27T01:36:26.393Z,67.71
2023-02-27T01:38:53.004Z,67.84
2023-02-27T01:41:19.633Z,68.20
2023-02-27T01:46:32.409Z,67.98
2023-02-27T01:49:09.706Z,67.49
2023-02-27T01:51:40.457Z,68.67
2023-02-27T01:54:09.917Z,69.41
2023-02-27T01:56:37.002Z,69.13
2023-02-27T01:59:07.809Z,69.13
2023-02-27T02:01:35.415Z,68.63
2023-02-27T02:06:47.806Z,69.60
2023-02-27T02:09:17.587Z,69.14
2023-02-27T02:11:44.759Z,69.79
2023-02-27T02:14:12.480Z,69.24
2023-02-27T02:28:32.087Z,69.69
2023-02-27T02:39:43.000Z,71.54
2023-02-27T02:45:15.361Z,71.54
2023-02-27T02:50:39.734Z,72.12
2023-02-27T02:55:53.057Z,72.79
2023-02-27T02:58:34.179Z,72.74
2023-02-27T03:01:12.670Z,73.52
2023-02-27T03:03:47.765Z,73.39
2023-02-27T03:09:05.385Z,71.95
2023-02-27T03:11:36.601Z,72.41
2023-02-27T03:14:11.997Z,72.23
2023-02-27T03:16:43.134Z,73.19
2023-02-27T03:27:16.659Z,73.01
2023-02-27T03:29:50.711Z,73.46
2023-02-27T03:32:23.267Z,73.87
2023-02-27T03:34:50.003Z,73.60
2023-02-27T03:37:27.596Z,73.63
2023-02-27T03:40:06.476Z,73.31
2023-02-27T03:45:35.430Z,73.47
2023-02-27T03:48:03.381Z,73.67
2023-02-27T03:50:30.214Z,73.64
2023-02-27T03:52:57.486Z,73.89
2023-02-27T03:55:33.188Z,73.08
2023-02-27T03:58:00.649Z,73.08
2023-02-27T04:00:28.903Z,73.89
2023-02-27T04:02:58.376Z,73.99
2023-02-27T04:05:25.171Z,73.66
2023-02-27T04:08:31.531Z,73.54
2023-02-27T04:16:33.471Z,73.77
2023-02-27T04:32:41.136Z,74.38
2023-02-27T04:35:15.239Z,74.81
2023-02-27T04:37:48.733Z,75.29
2023-02-27T04:40:21.186Z,75.58
2023-02-27T04:42:54.925Z,75.15
2023-02-27T04:45:24.797Z,75.61
2023-02-27T04:47:58.448Z,75.69
2023-02-27T04:50:32.340Z,75.69
2023-02-27T04:53:05.917Z,76.12
2023-02-27T04:55:39.056Z,75.64
2023-02-27T04:58:14.295Z,75.80
2023-02-27T05:00:46.149Z,75.86
2023-02-27T05:03:22.740Z,75.37
2023-02-27T05:05:52.236Z,74.84
2023-02-27T05:08:27.953Z,75.25
2023-02-27T05:13:47.184Z,74.88
2023-02-27T05:18:54.595Z,75.59
2023-02-27T05:29:52.166Z,75.43
2023-02-27T05:37:51.520Z,74.80
2023-02-27T05:40:25.440Z,75.24
2023-02-27T05:43:02.275Z,74.83
2023-02-27T05:45:32.065Z,75.31
2023-02-27T05:48:05.794Z,75.93
2023-02-27T05:50:34.010Z,75.54
2023-02-27T05:53:09.574Z,75.33
2023-02-27T05:55:41.137Z,76.12
2023-02-27T06:03:21.964Z,75.85
2023-02-27T06:05:53.083Z,76.23
2023-02-27T06:08:20.793Z,76.75
2023-02-27T06:10:48.749Z,76.84
2023-02-27T06:13:17.282Z,76.46
2023-02-27T06:15:44.718Z,76.74
2023-02-27T06:18:12.773Z,77.38
2023-02-27T06:20:40.160Z,76.66
2023-02-27T06:23:07.218Z,76.87
2023-02-27T06:25:34.775Z,76.71
2023-02-27T06:28:01.627Z,76.77
2023-02-27T06:30:28.326Z,77.87
2023-02-27T06:32:54.944Z,77.43
2023-02-27T06:35:21.982Z,77.27
2023-02-27T06:37:48.604Z,77.11
2023-02-27T06:40:15.478Z,76.66
2023-02-27T06:42:43.391Z,76.77
2023-02-27T06:45:11.923Z,76.83
2023-02-27T06:47:40.163Z,76.32
2023-02-27T06:50:07.901Z,76.43
2023-02-27T06:52:34.667Z,76.23
2023-02-27T06:55:01.224Z,76.51
2023-02-27T06:57:27.781Z,75.34
2023-02-27T06:59:54.367Z,76.07
2023-02-27T07:02:21.004Z,75.91
2023-02-27T07:04:47.604Z,76.39
2023-02-27T07:07:32.300Z,76.47
2023-02-27T07:10:00.224Z,76.46
2023-02-27T07:12:26.800Z,76.65
2023-02-27T07:14:53.409Z,75.99
2023-02-27T07:17:20.002Z,75.82
2023-02-27T07:19:46.561Z,76.49
2023-02-27T07:22:13.113Z,76.75
2023-02-27T07:24:39.657Z,75.80
2023-02-27T07:27:06.192Z,76.48
2023-02-27T07:29:32.782Z,75.76
2023-02-27T07:31:59.311Z,75.67
2023-02-27T07:34:25.893Z,76.28
2023-02-27T07:36:52.474Z,75.76
2023-02-27T07:39:19.491Z,75.97
2023-02-27T07:41:46.138Z,75.71
2023-02-27T07:44:13.630Z,76.12
2023-02-27T07:46:40.353Z,76.21
2023-02-27T07:49:06.942Z,76.53
2023-02-27T07:51:33.650Z,76.34
2023-02-27T07:54:00.186Z,76.30
2023-02-27T07:56:27.727Z,76.60
2023-02-27T07:58:54.705Z,75.96
2023-02-27T08:01:21.440Z,76.35
2023-02-27T08:03:48.039Z,76.21
2023-02-27T08:06:14.727Z,76.13
2023-02-27T08:08:42.184Z,75.72
2023-02-27T08:11:09.358Z,75.87
2023-02-27T08:13:59.522Z,76.10
2023-02-27T08:16:22.594Z,75.87
2023-02-27T08:18:49.180Z,75.75
2023-02-27T08:21:15.866Z,75.74
2023-02-27T08:23:42.743Z,76.04
2023-02-27T08:26:09.467Z,75.65
2023-02-27T08:28:36.026Z,75.95
2023-02-27T08:31:03.113Z,75.40
2023-02-27T08:33:29.693Z,75.24
2023-02-27T08:35:58.782Z,75.24
2023-02-27T08:38:27.603Z,75.67
2023-02-27T08:40:54.222Z,75.22
2023-02-27T08:43:21.861Z,75.14
2023-02-27T08:45:49.435Z,75.71
2023-02-27T08:48:17.789Z,74.64
2023-02-27T08:50:45.238Z,74.56
2023-02-27T08:53:16.443Z,75.15
2023-02-27T08:55:43.085Z,74.86
2023-02-27T08:58:10.641Z,74.40
2023-02-27T09:00:37.176Z,75.20
2023-02-27T09:03:03.839Z,74.34
2023-02-27T09:05:35.317Z,75.19
2023-02-27T09:08:02.955Z,74.88
2023-02-27T09:10:29.870Z,74.32
2023-02-27T09:12:56.445Z,75.13
2023-02-27T09:15:24.782Z,75.00
2023-02-27T09:17:51.560Z,74.77
2023-02-27T09:20:18.816Z,75.02
2023-02-27T09:22:45.939Z,74.51
2023-02-27T09:25:12.491Z,74.91
2023-02-27T09:27:39.038Z,75.11
2023-02-27T09:30:06.429Z,74.73
2023-02-27T09:32:33.024Z,74.72
2023-02-27T09:35:03.506Z,75.59
2023-02-27T09:37:30.042Z,75.78
2023-02-27T09:39:56.568Z,75.55
2023-02-27T09:42:28.383Z,74.25
2023-02-27T09:45:02.644Z,73.45
2023-02-27T09:47:40.127Z,74.15
2023-02-27T09:52:43.099Z,73.46
2023-02-27T09:55:19.340Z,74.10
2023-02-27T09:58:14.314Z,72.76
2023-02-27T10:00:51.632Z,72.94
2023-02-27T10:06:34.811Z,72.90
2023-02-27T10:12:06.994Z,72.32
2023-02-27T10:17:18.077Z,72.52
2023-02-27T10:19:47.058Z,71.34
2023-02-27T10:22:20.159Z,70.51
2023-02-27T10:24:53.007Z,70.59
2023-02-27T10:27:21.593Z,70.84
2023-02-27T10:29:48.204Z,71.08
2023-02-27T10:32:22.655Z,71.39
2023-02-27T10:34:55.303Z,70.27
2023-02-27T10:37:26.008Z,71.38
2023-02-27T10:39:57.659Z,71.76
2023-02-27T10:42:28.084Z,72.27
2023-02-27T10:44:56.107Z,71.28
2023-02-27T10:47:24.799Z,71.43
2023-02-27T10:49:53.198Z,71.97
2023-02-27T10:52:20.310Z,71.51
2023-02-27T10:54:47.255Z,72.31
2023-02-27T10:57:28.515Z,72.10
2023-02-27T10:59:59.046Z,70.59
2023-02-27T11:02:36.341Z,71.33
2023-02-27T11:05:06.765Z,70.72
2023-02-27T11:07:37.103Z,70.10
2023-02-27T11:10:21.065Z,71.14
2023-02-27T11:13:06.552Z,70.34
2023-02-27T11:15:36.487Z,70.04
2023-02-27T11:21:11.146Z,69.31
2023-02-27T11:23:37.843Z,69.96
2023-02-27T11:26:19.228Z,70.64
2023-02-27T11:28:45.764Z,69.10
2023-02-27T11:31:22.301Z,70.01
2023-02-27T11:33:53.257Z,70.01
2023-02-27T11:36:23.688Z,70.46
2023-02-27T11:38:54.339Z,69.92
2023-02-27T11:41:38.004Z,69.72
2023-02-27T11:44:05.654Z,69.68
2023-02-27T11:46:46.872Z,68.92
2023-02-27T12:00:08.564Z,68.77
2023-02-27T12:05:29.222Z,68.06
2023-02-27T12:08:02.546Z,68.20
2023-02-27T12:10:35.423Z,67.57
2023-02-27T12:29:15.220Z,67.78
2023-02-27T12:31:48.385Z,67.91
2023-02-27T12:34:46.630Z,66.95
2023-02-27T12:37:17.393Z,67.02
2023-02-27T12:39:45.243Z,67.84
2023-02-27T12:42:52.417Z,66.89
2023-02-27T12:48:31.066Z,66.14
2023-02-27T12:56:23.886Z,66.52
2023-02-27T13:02:00.496Z,67.12
2023-02-27T13:07:09.475Z,66.35
2023-02-27T13:10:01.216Z,66.67
2023-02-27T13:15:11.544Z,66.02
2023-02-27T13:17:42.123Z,65.39
2023-02-27T13:20:32.431Z,65.79
2023-02-27T13:25:46.662Z,64.32
2023-02-27T13:28:17.051Z,64.40
2023-02-27T13:30:52.799Z,63.51
2023-02-27T13:33:30.497Z,64.14
2023-02-27T13:38:51.953Z,63.49
2023-02-27T13:44:01.415Z,63.42
2023-02-27T13:46:30.280Z,62.77
2023-02-27T13:51:46.282Z,63.11
2023-02-27T13:54:19.715Z,63.11
2023-02-27T13:59:33.478Z,63.88
2023-02-27T14:02:04.854Z,64.33
2023-02-27T14:04:35.822Z,62.85
2023-02-27T14:09:45.296Z,62.87
2023-02-27T14:12:44.327Z,63.63
2023-02-27T14:18:47.719Z,63.85
2023-02-27T14:21:54.409Z,63.42
2023-02-27T14:24:27.151Z,64.52
2023-02-27T14:26:54.770Z,64.49
2023-02-27T14:29:25.810Z,63.58
2023-02-27T14:31:54.274Z,64.03
2023-02-27T14:34:22.151Z,64.10
2023-02-27T14:36:54.212Z,64.01
2023-02-27T14:39:32.528Z,63.50
2023-02-27T14:42:16.618Z,62.59
2023-02-27T14:44:47.027Z,63.21
2023-02-27T14:47:18.887Z,63.23
2023-02-27T14:49:47.681Z,62.67
2023-02-27T14:52:22.446Z,63.05
2023-02-27T14:54:50.113Z,62.81
2023-02-27T14:57:21.551Z,62.87
2023-02-27T14:59:50.964Z,63.07
2023-02-27T15:02:27.420Z,63.24
2023-02-27T15:05:13.642Z,64.08
2023-02-27T15:07:40.747Z,63.81
2023-02-27T15:10:09.788Z,63.76
2023-02-27T15:12:39.371Z,64.18
2023-02-27T15:15:09.802Z,63.61
2023-02-27T15:17:40.064Z,63.95
2023-02-27T15:20:27.509Z,64.82
2023-02-27T15:22:54.136Z,64.91
2023-02-27T15:25:39.279Z,64.39
2023-02-27T15:28:17.432Z,64.35
2023-02-27T15:30:49.230Z,64.63
2023-02-27T15:33:17.364Z,64.15
2023-02-27T15:35:46.104Z,64.25
2023-02-27T15:38:32.206Z,64.60
2023-02-27T15:41:00.824Z,64.39
2023-02-27T15:43:29.625Z,65.02
2023-02-27T15:45:58.316Z,64.12
2023-02-27T15:48:25.783Z,64.96
2023-02-27T15:50:56.788Z,64.31
2023-02-27T15:53:26.294Z,64.02
2023-02-27T15:55:56.520Z,64.59
2023-02-27T15:58:25.179Z,64.41
2023-02-27T16:01:01.640Z,64.25
2023-02-27T16:03:33.118Z,64.33
2023-02-27T16:06:00.639Z,64.90
2023-02-27T16:08:30.240Z,63.79
2023-02-27T16:10:57.620Z,63.59
2023-02-27T16:18:47.776Z,64.38
2023-02-27T16:21:24.098Z,63.81
2023-02-27T16:23:51.601Z,63.89
2023-02-27T16:31:38.787Z,64.88
2023-02-27T16:36:55.885Z,63.96
2023-02-27T16:39:22.508Z,65.42
2023-02-27T16:41:49.583Z,64.07
2023-02-27T16:44:18.201Z,64.36
2023-02-27T16:46:44.876Z,65.50
2023-02-27T16:49:29.476Z,64.22
2023-02-27T16:51:56.538Z,65.58
2023-02-27T16:54:24.176Z,66.16
2023-02-27T16:56:51.282Z,66.01
2023-02-27T17:01:56.891Z,65.97
2023-02-27T17:04:26.158Z,65.70
2023-02-27T17:06:54.198Z,65.83
2023-02-27T17:09:21.003Z,66.03
2023-02-27T17:11:47.670Z,67.07
2023-02-27T17:14:14.286Z,66.41
2023-02-27T17:16:41.248Z,66.79
2023-02-27T17:19:08.363Z,66.50
2023-02-27T17:21:35.360Z,66.80
2023-02-27T17:24:02.461Z,67.09
2023-02-27T17:26:29.410Z,67.43
2023-02-27T17:28:56.482Z,67.45
2023-02-27T17:31:24.198Z,67.50
2023-02-27T17:33:52.094Z,66.84
2023-02-27T17:36:20.188Z,67.92
2023-02-27T17:38:48.033Z,66.69
2023-02-27T17:41:15.318Z,68.00
2023-02-27T17:43:42.095Z,67.97
2023-02-27T17:46:10.510Z,66.45
2023-02-27T17:48:38.789Z,67.67
2023-02-27T17:51:07.487Z,67.13
2023-02-27T17:53:35.451Z,66.80
2023-02-27T17:56:02.678Z,67.75
2023-02-27T17:58:29.648Z,67.58
2023-02-27T18:01:04.164Z,67.79
2023-02-27T18:03:30.983Z,67.45
2023-02-27T18:05:57.553Z,67.89
2023-02-27T18:08:24.226Z,68.13
2023-02-27T18:10:51.647Z,68.06
2023-02-27T18:13:18.984Z,67.32
2023-02-27T18:15:46.222Z,66.72
2023-02-27T18:18:13.115Z,67.83
2023-02-27T18:20:40.479Z,68.19
2023-02-27T18:23:08.827Z,67.40
2023-02-27T18:25:36.295Z,67.29
2023-02-27T18:28:03.762Z,68.32
2023-02-27T18:30:33.524Z,67.98
2023-02-27T18:33:00.267Z,68.03
2023-02-27T18:35:27.121Z,67.59
2023-02-27T18:37:54.010Z,68.23
2023-02-27T18:40:24.523Z,68.23
2023-02-27T18:42:52.449Z,68.83
2023-02-27T18:45:19.877Z,68.81
2023-02-27T18:47:46.985Z,68.57
2023-02-27T18:50:14.398Z,67.77
2023-02-27T18:52:40.968Z,68.22
2023-02-27T18:55:08.082Z,67.73
2023-02-27T18:57:34.746Z,67.99
2023-02-27T19:00:01.398Z,67.97
2023-02-27T19:02:28.262Z,68.13
2023-02-27T19:04:54.918Z,68.44
2023-02-27T19:07:23.391Z,68.56
2023-02-27T19:09:53.079Z,68.43
2023-02-27T19:12:19.826Z,68.72
2023-02-27T19:14:46.461Z,68.76
2023-02-27T19:17:13.429Z,68.62
2023-02-27T19:19:40.161Z,68.88
2023-02-27T19:22:06.850Z,68.36
2023-02-27T19:24:33.575Z,68.99
2023-02-27T19:27:00.241Z,69.05
2023-02-27T19:29:27.030Z,69.56
2023-02-27T19:31:54.152Z,68.87
2023-02-27T19:34:20.806Z,68.61
2023-02-27T19:36:47.347Z,68.82
2023-02-27T19:39:14.110Z,68.86
2023-02-27T19:41:41.396Z,68.49
2023-02-27T19:44:08.488Z,69.20
2023-02-27T19:46:35.309Z,69.18
2023-02-27T19:49:05.608Z,68.55
2023-02-27T19:51:32.722Z,68.74
2023-02-27T19:53:59.741Z,69.21
2023-02-27T19:56:28.286Z,68.62
2023-02-27T19:58:55.067Z,68.90
2023-02-27T20:01:28.372Z,69.24
2023-02-27T20:03:56.262Z,68.73
2023-02-27T20:06:24.852Z,68.77
2023-02-27T20:08:52.812Z,68.60
2023-02-27T20:11:20.949Z,69.17
2023-02-27T20:13:48.843Z,68.74
2023-02-27T20:16:17.864Z,68.54
2023-02-27T20:18:45.856Z,68.64
2023-02-27T20:21:15.527Z,69.64
2023-02-27T20:23:44.220Z,68.94
2023-02-27T20:28:52.216Z,69.45
2023-02-27T20:31:21.318Z,68.84
2023-02-27T20:33:49.205Z,69.77
2023-02-27T20:36:16.151Z,69.82
2023-02-27T20:38:43.203Z,69.41
2023-02-27T20:41:13.014Z,69.70
2023-02-27T20:43:39.951Z,69.50
2023-02-27T20:46:11.605Z,69.52
2023-02-27T20:48:38.454Z,70.45
2023-02-27T20:51:08.496Z,70.60
2023-02-27T20:53:38.173Z,71.10
2023-02-27T20:56:06.117Z,71.09
2023-02-27T20:58:33.097Z,70.06
2023-02-27T21:01:04.216Z,70.31
2023-02-27T21:03:38.477Z,70.48
2023-02-27T21:06:07.007Z,71.30
2023-02-27T21:08:37.277Z,70.72
2023-02-27T21:11:22.377Z,70.34
2023-02-27T21:13:52.668Z,71.28
2023-02-27T21:16:22.754Z,71.05
2023-02-27T21:18:51.492Z,71.51
2023-02-27T21:21:23.524Z,71.52
2023-02-27T21:23:51.160Z,70.89
2023-02-27T21:26:22.257Z,70.91
2023-02-27T21:28:52.176Z,71.86
2023-02-27T21:31:21.081Z,71.24
2023-02-27T21:33:48.293Z,72.14
2023-02-27T21:36:15.692Z,71.86
2023-02-27T21:38:42.895Z,71.56
2023-02-27T21:41:12.251Z,71.58
2023-02-27T21:43:40.728Z,71.75
2023-02-27T21:46:09.193Z,71.34
2023-02-27T21:48:36.098Z,72.01
2023-02-27T21:51:03.750Z,71.16
2023-02-27T21:53:30.817Z,71.55
2023-02-27T21:56:04.067Z,71.87
2023-02-27T21:58:30.691Z,72.21
2023-02-27T22:00:57.196Z,71.50
2023-02-27T22:03:23.772Z,71.58
2023-02-27T22:05:50.608Z,72.15
2023-02-27T22:08:17.220Z,72.22
2023-02-27T22:10:45.922Z,71.53
2023-02-27T22:13:14.913Z,71.69
2023-02-27T22:15:42.405Z,72.39
2023-02-27T22:18:09.325Z,71.99
2023-02-27T22:20:39.211Z,72.23
2023-02-27T22:23:07.619Z,71.82
2023-02-27T22:25:35.703Z,72.37
2023-02-27T22:28:02.765Z,72.43
2023-02-27T22:30:29.643Z,72.11
2023-02-27T22:32:56.326Z,72.28
2023-02-27T22:35:23.308Z,72.49
2023-02-27T22:37:49.898Z,72.02
2023-02-27T22:40:17.917Z,72.01
2023-02-27T22:42:45.297Z,72.64
2023-02-27T22:45:12.085Z,73.13
2023-02-27T22:47:38.691Z,72.86
2023-02-27T22:50:05.992Z,73.06
2023-02-27T22:52:35.642Z,72.86
2023-02-27T22:55:02.567Z,73.17
2023-02-27T22:57:29.098Z,72.80
2023-02-27T22:59:55.632Z,73.69
2023-02-27T23:02:22.183Z,73.40
2023-02-27T23:04:48.737Z,72.94
2023-02-27T23:07:15.266Z,72.87
2023-02-27T23:09:42.071Z,73.34
2023-02-27T23:12:08.696Z,73.97
2023-02-27T23:14:35.401Z,73.58
2023-02-27T23:17:01.917Z,73.54
2023-02-27T23:19:28.453Z,73.82
2023-02-27T23:21:55.061Z,73.60
2023-02-27T23:24:21.643Z,73.23
2023-02-27T23:26:50.796Z,73.34
2023-02-27T23:29:17.390Z,73.62
2023-02-27T23:31:44.285Z,74.16
2023-02-27T23:34:10.987Z,73.72
2023-02-27T23:36:38.589Z,73.63
2023-02-27T23:39:06.698Z,73.38
2023-02-27T23:41:34.169Z,73.80
2023-02-27T23:44:20.998Z,73.90
2023-02-27T23:46:47.606Z,73.60
2023-02-27T23:49:14.131Z,73.23
2023-02-27T23:51:40.845Z,73.42
2023-02-27T23:54:07.368Z,74.24
2023-02-27T23:56:34.279Z,73.95
2023-02-27T23:59:03.964Z,73.69
